Prudhoe Bay, Alaska
Current Conditions -  °F | °C
As of 3:53 AM on Thursday 27 Nov 2014 (Local Time) from PASC Reporting Station
Clear Clear  
Wind Chill: -32°   Ceiling: Unl
Heat Index: -11°   Visibility: 10mi
Dew Point: -17°   Wind: 13mph
Humidity: 75%   Direction: 90°E
Pressure: 30.48"   Gusts: NA
Location:  70.28°N, 148.38°W
Report Text: PASC 271253Z 09011KT 10SM CLR M24/M27 A3048 RMK AO2 SLP325 T12391272
Loading
Personal Weather Stations






























Interactive Weather Map New forecast layout! Learn more

10-Day Weather Forecast

Advertisements
Track Severe Weather on mobile